sensor_id;sensor_type;location;lat;lon;timestamp;temperature;humidity
49717;DHT22;35609;53.166;7.610;2022-07-06T00:01:38;12.60;99.90
49717;DHT22;35609;53.166;7.610;2022-07-06T00:04:05;12.60;99.90
49717;DHT22;35609;53.166;7.610;2022-07-06T00:06:31;12.60;99.90
49717;DHT22;35609;53.166;7.610;2022-07-06T00:08:57;12.60;99.90
49717;DHT22;35609;53.166;7.610;2022-07-06T00:11:23;12.50;99.90
49717;DHT22;35609;53.166;7.610;2022-07-06T00:13:49;12.50;99.90
49717;DHT22;35609;53.166;7.610;2022-07-06T00:16:15;12.50;99.90
49717;DHT22;35609;53.166;7.610;2022-07-06T00:18:40;12.50;99.90
49717;DHT22;35609;53.166;7.610;2022-07-06T00:21:06;12.50;99.90
49717;DHT22;35609;53.166;7.610;2022-07-06T00:23:32;12.50;99.90
49717;DHT22;35609;53.166;7.610;2022-07-06T00:25:58;12.40;99.90
49717;DHT22;35609;53.166;7.610;2022-07-06T00:28:23;12.40;99.90
49717;DHT22;35609;53.166;7.610;2022-07-06T00:30:49;12.50;99.90
49717;DHT22;35609;53.166;7.610;2022-07-06T00:33:15;12.40;99.90
49717;DHT22;35609;53.166;7.610;2022-07-06T00:35:41;12.40;99.90
49717;DHT22;35609;53.166;7.610;2022-07-06T00:38:06;12.40;99.90
49717;DHT22;35609;53.166;7.610;2022-07-06T00:40:32;12.40;99.90
49717;DHT22;35609;53.166;7.610;2022-07-06T00:42:58;12.40;99.90
49717;DHT22;35609;53.166;7.610;2022-07-06T00:45:23;12.40;99.90
49717;DHT22;35609;53.166;7.610;2022-07-06T00:47:49;12.40;99.90
49717;DHT22;35609;53.166;7.610;2022-07-06T00:50:16;12.50;99.90
49717;DHT22;35609;53.166;7.610;2022-07-06T00:52:56;12.40;99.90
49717;DHT22;35609;53.166;7.610;2022-07-06T00:55:27;12.50;99.90
49717;DHT22;35609;53.166;7.610;2022-07-06T00:57:54;12.50;99.90
49717;DHT22;35609;53.166;7.610;2022-07-06T01:00:22;12.50;99.90
49717;DHT22;35609;53.166;7.610;2022-07-06T01:02:50;12.50;99.90
49717;DHT22;35609;53.166;7.610;2022-07-06T01:05:17;12.50;99.90
49717;DHT22;35609;53.166;7.610;2022-07-06T01:07:44;12.50;99.90
49717;DHT22;35609;53.166;7.610;2022-07-06T01:10:12;12.50;99.90
49717;DHT22;35609;53.166;7.610;2022-07-06T01:12:39;12.50;99.90
49717;DHT22;35609;53.166;7.610;2022-07-06T01:15:11;12.50;99.90
49717;DHT22;35609;53.166;7.610;2022-07-06T01:17:42;12.50;99.90
49717;DHT22;35609;53.166;7.610;2022-07-06T01:22:40;12.50;99.90
49717;DHT22;35609;53.166;7.610;2022-07-06T01:25:07;12.50;99.90
49717;DHT22;35609;53.166;7.610;2022-07-06T01:27:34;12.40;99.90
49717;DHT22;35609;53.166;7.610;2022-07-06T01:30:11;12.50;99.90
49717;DHT22;35609;53.166;7.610;2022-07-06T01:32:38;12.40;99.90
49717;DHT22;35609;53.166;7.610;2022-07-06T01:35:10;12.40;99.90
49717;DHT22;35609;53.166;7.610;2022-07-06T01:37:36;12.40;99.90
49717;DHT22;35609;53.166;7.610;2022-07-06T01:40:05;12.40;99.90
49717;DHT22;35609;53.166;7.610;2022-07-06T01:42:31;12.40;99.90
49717;DHT22;35609;53.166;7.610;2022-07-06T01:44:57;12.40;99.90
49717;DHT22;35609;53.166;7.610;2022-07-06T01:47:23;12.40;99.90
49717;DHT22;35609;53.166;7.610;2022-07-06T01:49:49;12.40;99.90
49717;DHT22;35609;53.166;7.610;2022-07-06T01:52:15;12.40;99.90
49717;DHT22;35609;53.166;7.610;2022-07-06T01:54:41;12.40;99.90
49717;DHT22;35609;53.166;7.610;2022-07-06T01:57:07;12.40;99.90
49717;DHT22;35609;53.166;7.610;2022-07-06T01:59:32;12.40;99.90
49717;DHT22;35609;53.166;7.610;2022-07-06T02:01:58;12.40;99.90
49717;DHT22;35609;53.166;7.610;2022-07-06T02:04:24;12.40;99.90
49717;DHT22;35609;53.166;7.610;2022-07-06T02:06:51;12.30;99.90
49717;DHT22;35609;53.166;7.610;2022-07-06T02:09:17;12.40;99.90
49717;DHT22;35609;53.166;7.610;2022-07-06T02:11:43;12.40;99.90
49717;DHT22;35609;53.166;7.610;2022-07-06T02:14:08;12.40;99.90
49717;DHT22;35609;53.166;7.610;2022-07-06T02:16:34;12.40;99.90
49717;DHT22;35609;53.166;7.610;2022-07-06T02:19:00;12.40;99.90
49717;DHT22;35609;53.166;7.610;2022-07-06T02:21:26;12.40;99.90
49717;DHT22;35609;53.166;7.610;2022-07-06T02:23:51;12.20;99.90
49717;DHT22;35609;53.166;7.610;2022-07-06T02:26:17;12.30;99.90
49717;DHT22;35609;53.166;7.610;2022-07-06T02:28:43;12.30;99.90
49717;DHT22;35609;53.166;7.610;2022-07-06T02:31:09;12.30;99.90
49717;DHT22;35609;53.166;7.610;2022-07-06T02:33:38;12.20;99.90
49717;DHT22;35609;53.166;7.610;2022-07-06T02:36:05;12.30;99.90
49717;DHT22;35609;53.166;7.610;2022-07-06T02:38:31;12.20;99.90
49717;DHT22;35609;53.166;7.610;2022-07-06T02:40:57;12.20;99.90
49717;DHT22;35609;53.166;7.610;2022-07-06T02:43:23;12.20;99.90
49717;DHT22;35609;53.166;7.610;2022-07-06T02:45:48;12.40;99.90
49717;DHT22;35609;53.166;7.610;2022-07-06T02:48:14;12.10;99.90
49717;DHT22;35609;53.166;7.610;2022-07-06T02:50:40;12.20;99.90
49717;DHT22;35609;53.166;7.610;2022-07-06T02:53:06;12.20;99.90
49717;DHT22;35609;53.166;7.610;2022-07-06T02:55:32;12.10;99.90
49717;DHT22;35609;53.166;7.610;2022-07-06T02:57:58;12.10;99.90
49717;DHT22;35609;53.166;7.610;2022-07-06T03:00:24;12.30;99.90
49717;DHT22;35609;53.166;7.610;2022-07-06T03:02:50;12.10;99.90
49717;DHT22;35609;53.166;7.610;2022-07-06T03:05:16;12.10;99.90
49717;DHT22;35609;53.166;7.610;2022-07-06T03:07:42;12.10;99.90
49717;DHT22;35609;53.166;7.610;2022-07-06T03:10:08;12.10;99.90
49717;DHT22;35609;53.166;7.610;2022-07-06T03:12:34;12.10;99.90
49717;DHT22;35609;53.166;7.610;2022-07-06T03:15:00;12.10;99.90
49717;DHT22;35609;53.166;7.610;2022-07-06T03:17:25;12.10;99.90
49717;DHT22;35609;53.166;7.610;2022-07-06T03:19:51;12.10;99.90
49717;DHT22;35609;53.166;7.610;2022-07-06T03:22:18;12.20;99.90
49717;DHT22;35609;53.166;7.610;2022-07-06T03:24:44;12.10;99.90
49717;DHT22;35609;53.166;7.610;2022-07-06T03:27:10;12.20;99.90
49717;DHT22;35609;53.166;7.610;2022-07-06T03:29:35;12.20;99.90
49717;DHT22;35609;53.166;7.610;2022-07-06T03:32:01;12.20;99.90
49717;DHT22;35609;53.166;7.610;2022-07-06T03:34:28;12.30;99.90
49717;DHT22;35609;53.166;7.610;2022-07-06T03:36:53;12.20;99.90
49717;DHT22;35609;53.166;7.610;2022-07-06T03:39:19;12.20;99.90
49717;DHT22;35609;53.166;7.610;2022-07-06T03:41:45;12.40;99.90
49717;DHT22;35609;53.166;7.610;2022-07-06T03:44:10;12.30;99.90
49717;DHT22;35609;53.166;7.610;2022-07-06T03:46:36;12.20;99.90
49717;DHT22;35609;53.166;7.610;2022-07-06T03:49:01;12.30;99.90
49717;DHT22;35609;53.166;7.610;2022-07-06T03:51:27;12.30;99.90
49717;DHT22;35609;53.166;7.610;2022-07-06T03:53:53;12.30;99.90
49717;DHT22;35609;53.166;7.610;2022-07-06T03:56:19;12.30;99.90
49717;DHT22;35609;53.166;7.610;2022-07-06T03:58:58;12.30;99.90
49717;DHT22;35609;53.166;7.610;2022-07-06T04:01:23;12.30;99.90
49717;DHT22;35609;53.166;7.610;2022-07-06T04:03:50;12.30;99.90
49717;DHT22;35609;53.166;7.610;2022-07-06T04:06:15;12.30;99.90
49717;DHT22;35609;53.166;7.610;2022-07-06T04:08:41;12.30;99.90
49717;DHT22;35609;53.166;7.610;2022-07-06T04:11:07;12.30;99.90
49717;DHT22;35609;53.166;7.610;2022-07-06T04:13:33;12.50;99.90
49717;DHT22;35609;53.166;7.610;2022-07-06T04:15:59;12.40;99.90
49717;DHT22;35609;53.166;7.610;2022-07-06T04:18:25;12.40;99.90
49717;DHT22;35609;53.166;7.610;2022-07-06T04:20:51;12.40;99.90
49717;DHT22;35609;53.166;7.610;2022-07-06T04:23:17;12.40;99.90
49717;DHT22;35609;53.166;7.610;2022-07-06T04:25:43;12.40;99.90
49717;DHT22;35609;53.166;7.610;2022-07-06T04:28:09;12.40;99.90
49717;DHT22;35609;53.166;7.610;2022-07-06T04:30:35;12.40;99.90
49717;DHT22;35609;53.166;7.610;2022-07-06T04:33:01;12.40;99.90
49717;DHT22;35609;53.166;7.610;2022-07-06T04:35:26;12.40;99.90
49717;DHT22;35609;53.166;7.610;2022-07-06T04:37:52;12.50;99.90
49717;DHT22;35609;53.166;7.610;2022-07-06T04:40:18;12.50;99.90
49717;DHT22;35609;53.166;7.610;2022-07-06T04:42:44;12.50;99.90
49717;DHT22;35609;53.166;7.610;2022-07-06T04:45:10;12.60;99.90
49717;DHT22;35609;53.166;7.610;2022-07-06T04:47:35;12.60;99.90
49717;DHT22;35609;53.166;7.610;2022-07-06T04:50:02;12.70;99.90
49717;DHT22;35609;53.166;7.610;2022-07-06T04:52:28;12.70;99.90
49717;DHT22;35609;53.166;7.610;2022-07-06T04:54:54;12.70;99.90
49717;DHT22;35609;53.166;7.610;2022-07-06T04:57:20;12.70;99.90
49717;DHT22;35609;53.166;7.610;2022-07-06T04:59:46;12.70;99.90
49717;DHT22;35609;53.166;7.610;2022-07-06T05:02:12;12.80;99.90
49717;DHT22;35609;53.166;7.610;2022-07-06T05:04:38;12.80;99.90
49717;DHT22;35609;53.166;7.610;2022-07-06T05:07:04;12.90;99.90
49717;DHT22;35609;53.166;7.610;2022-07-06T05:09:29;12.80;99.90
49717;DHT22;35609;53.166;7.610;2022-07-06T05:11:55;13.00;99.90
49717;DHT22;35609;53.166;7.610;2022-07-06T05:14:21;13.10;99.90
49717;DHT22;35609;53.166;7.610;2022-07-06T05:16:46;12.90;99.90
49717;DHT22;35609;53.166;7.610;2022-07-06T05:19:12;13.00;99.90
49717;DHT22;35609;53.166;7.610;2022-07-06T05:21:38;13.00;99.90
49717;DHT22;35609;53.166;7.610;2022-07-06T05:24:04;13.00;99.90
49717;DHT22;35609;53.166;7.610;2022-07-06T05:26:30;13.00;99.90
49717;DHT22;35609;53.166;7.610;2022-07-06T05:28:55;13.10;99.90
49717;DHT22;35609;53.166;7.610;2022-07-06T05:31:21;13.10;99.90
49717;DHT22;35609;53.166;7.610;2022-07-06T05:33:47;13.20;99.90
49717;DHT22;35609;53.166;7.610;2022-07-06T05:36:12;13.20;99.90
49717;DHT22;35609;53.166;7.610;2022-07-06T05:38:38;13.20;99.90
49717;DHT22;35609;53.166;7.610;2022-07-06T05:41:04;13.20;99.90
49717;DHT22;35609;53.166;7.610;2022-07-06T05:43:29;13.30;99.90
49717;DHT22;35609;53.166;7.610;2022-07-06T05:45:55;13.30;99.90
49717;DHT22;35609;53.166;7.610;2022-07-06T05:48:21;13.30;99.90
49717;DHT22;35609;53.166;7.610;2022-07-06T05:51:05;13.40;99.90
49717;DHT22;35609;53.166;7.610;2022-07-06T05:53:31;13.40;99.90
49717;DHT22;35609;53.166;7.610;2022-07-06T05:55:56;13.60;99.90
49717;DHT22;35609;53.166;7.610;2022-07-06T05:58:22;13.50;99.90
49717;DHT22;35609;53.166;7.610;2022-07-06T06:00:50;13.60;99.90
49717;DHT22;35609;53.166;7.610;2022-07-06T06:03:16;13.60;99.90
49717;DHT22;35609;53.166;7.610;2022-07-06T06:05:42;13.80;99.90
49717;DHT22;35609;53.166;7.610;2022-07-06T06:08:08;13.70;99.90
49717;DHT22;35609;53.166;7.610;2022-07-06T06:10:34;13.80;99.90
49717;DHT22;35609;53.166;7.610;2022-07-06T06:12:59;13.80;99.90
49717;DHT22;35609;53.166;7.610;2022-07-06T06:15:25;13.90;99.90
49717;DHT22;35609;53.166;7.610;2022-07-06T06:17:51;13.90;99.90
49717;DHT22;35609;53.166;7.610;2022-07-06T06:20:16;13.90;99.90
49717;DHT22;35609;53.166;7.610;2022-07-06T06:25:12;13.80;99.90
49717;DHT22;35609;53.166;7.610;2022-07-06T06:27:38;13.90;99.90
49717;DHT22;35609;53.166;7.610;2022-07-06T06:30:04;14.00;99.90
49717;DHT22;35609;53.166;7.610;2022-07-06T06:32:30;14.00;99.90
49717;DHT22;35609;53.166;7.610;2022-07-06T06:34:55;14.20;99.90
49717;DHT22;35609;53.166;7.610;2022-07-06T06:37:21;14.10;99.90
49717;DHT22;35609;53.166;7.610;2022-07-06T06:39:46;14.20;99.90
49717;DHT22;35609;53.166;7.610;2022-07-06T06:42:12;14.10;99.90
49717;DHT22;35609;53.166;7.610;2022-07-06T06:44:38;14.20;99.90
49717;DHT22;35609;53.166;7.610;2022-07-06T06:47:03;14.20;99.90
49717;DHT22;35609;53.166;7.610;2022-07-06T06:49:29;14.20;99.90
49717;DHT22;35609;53.166;7.610;2022-07-06T06:51:55;14.10;99.90
49717;DHT22;35609;53.166;7.610;2022-07-06T06:54:20;14.20;99.90
49717;DHT22;35609;53.166;7.610;2022-07-06T06:56:46;14.20;99.90
49717;DHT22;35609;53.166;7.610;2022-07-06T06:59:11;14.10;99.90
49717;DHT22;35609;53.166;7.610;2022-07-06T07:01:37;14.10;99.90
49717;DHT22;35609;53.166;7.610;2022-07-06T07:04:03;14.10;99.90
49717;DHT22;35609;53.166;7.610;2022-07-06T07:06:29;14.20;99.90
49717;DHT22;35609;53.166;7.610;2022-07-06T07:08:54;14.20;99.90
49717;DHT22;35609;53.166;7.610;2022-07-06T07:11:21;14.30;99.90
49717;DHT22;35609;53.166;7.610;2022-07-06T07:13:47;14.30;99.90
49717;DHT22;35609;53.166;7.610;2022-07-06T07:16:12;14.60;99.90
49717;DHT22;35609;53.166;7.610;2022-07-06T07:18:38;14.40;99.90
49717;DHT22;35609;53.166;7.610;2022-07-06T07:21:04;14.40;99.90
49717;DHT22;35609;53.166;7.610;2022-07-06T07:23:29;14.50;99.90
49717;DHT22;35609;53.166;7.610;2022-07-06T07:25:55;14.80;99.90
49717;DHT22;35609;53.166;7.610;2022-07-06T07:28:21;14.60;99.90
49717;DHT22;35609;53.166;7.610;2022-07-06T07:30:47;14.80;99.90
49717;DHT22;35609;53.166;7.610;2022-07-06T07:33:12;14.80;99.90
49717;DHT22;35609;53.166;7.610;2022-07-06T07:35:38;15.10;99.90
49717;DHT22;35609;53.166;7.610;2022-07-06T07:38:04;15.30;99.90
49717;DHT22;35609;53.166;7.610;2022-07-06T07:40:30;15.20;99.90
49717;DHT22;35609;53.166;7.610;2022-07-06T07:42:56;15.20;99.90
49717;DHT22;35609;53.166;7.610;2022-07-06T07:45:22;15.20;99.90
49717;DHT22;35609;53.166;7.610;2022-07-06T07:47:48;15.30;99.90
49717;DHT22;35609;53.166;7.610;2022-07-06T07:50:14;15.40;99.90
49717;DHT22;35609;53.166;7.610;2022-07-06T07:52:40;15.50;99.90
49717;DHT22;35609;53.166;7.610;2022-07-06T07:55:06;15.60;99.90
49717;DHT22;35609;53.166;7.610;2022-07-06T07:57:32;15.70;99.90
49717;DHT22;35609;53.166;7.610;2022-07-06T07:59:58;16.00;99.90
49717;DHT22;35609;53.166;7.610;2022-07-06T08:02:23;16.20;99.90
49717;DHT22;35609;53.166;7.610;2022-07-06T08:04:49;16.30;99.90
49717;DHT22;35609;53.166;7.610;2022-07-06T08:07:15;16.20;99.90
49717;DHT22;35609;53.166;7.610;2022-07-06T08:09:40;16.30;99.90
49717;DHT22;35609;53.166;7.610;2022-07-06T08:12:06;16.40;99.90
49717;DHT22;35609;53.166;7.610;2022-07-06T08:14:32;16.20;99.90
49717;DHT22;35609;53.166;7.610;2022-07-06T08:16:58;15.90;99.90
49717;DHT22;35609;53.166;7.610;2022-07-06T08:19:23;15.60;99.90
49717;DHT22;35609;53.166;7.610;2022-07-06T08:21:49;15.70;99.90
49717;DHT22;35609;53.166;7.610;2022-07-06T08:24:15;15.50;99.90
49717;DHT22;35609;53.166;7.610;2022-07-06T08:26:40;15.60;99.90
49717;DHT22;35609;53.166;7.610;2022-07-06T08:29:06;15.70;99.90
49717;DHT22;35609;53.166;7.610;2022-07-06T08:31:32;15.50;99.90
49717;DHT22;35609;53.166;7.610;2022-07-06T08:34:00;15.50;99.90
49717;DHT22;35609;53.166;7.610;2022-07-06T08:36:27;15.30;99.90
49717;DHT22;35609;53.166;7.610;2022-07-06T08:38:53;15.20;99.90
49717;DHT22;35609;53.166;7.610;2022-07-06T08:41:23;15.40;99.90
49717;DHT22;35609;53.166;7.610;2022-07-06T08:43:50;15.30;99.90
49717;DHT22;35609;53.166;7.610;2022-07-06T08:46:16;15.20;99.90
49717;DHT22;35609;53.166;7.610;2022-07-06T08:48:42;15.10;99.90
49717;DHT22;35609;53.166;7.610;2022-07-06T08:51:09;15.00;99.90
49717;DHT22;35609;53.166;7.610;2022-07-06T08:53:38;15.00;99.90
49717;DHT22;35609;53.166;7.610;2022-07-06T08:56:04;15.00;99.90
49717;DHT22;35609;53.166;7.610;2022-07-06T08:58:30;15.20;99.90
49717;DHT22;35609;53.166;7.610;2022-07-06T09:00:57;15.50;99.90
49717;DHT22;35609;53.166;7.610;2022-07-06T09:03:24;15.80;99.90
49717;DHT22;35609;53.166;7.610;2022-07-06T09:05:50;16.00;99.90
49717;DHT22;35609;53.166;7.610;2022-07-06T09:08:18;16.10;99.90
49717;DHT22;35609;53.166;7.610;2022-07-06T09:10:44;16.00;99.90
49717;DHT22;35609;53.166;7.610;2022-07-06T09:13:10;16.10;99.90
49717;DHT22;35609;53.166;7.610;2022-07-06T09:15:37;16.10;99.90
49717;DHT22;35609;53.166;7.610;2022-07-06T09:18:05;15.90;99.90
49717;DHT22;35609;53.166;7.610;2022-07-06T09:20:32;15.90;99.90
49717;DHT22;35609;53.166;7.610;2022-07-06T09:23:00;15.90;99.90
49717;DHT22;35609;53.166;7.610;2022-07-06T09:25:26;16.00;99.90
49717;DHT22;35609;53.166;7.610;2022-07-06T09:27:53;16.10;99.90
49717;DHT22;35609;53.166;7.610;2022-07-06T09:30:22;16.30;99.90
49717;DHT22;35609;53.166;7.610;2022-07-06T09:32:53;16.80;99.90
49717;DHT22;35609;53.166;7.610;2022-07-06T09:35:25;17.00;99.90
49717;DHT22;35609;53.166;7.610;2022-07-06T09:40:25;17.30;99.90
49717;DHT22;35609;53.166;7.610;2022-07-06T09:42:51;17.50;99.90
49717;DHT22;35609;53.166;7.610;2022-07-06T09:45:21;17.70;99.90
49717;DHT22;35609;53.166;7.610;2022-07-06T09:47:47;17.50;99.90
49717;DHT22;35609;53.166;7.610;2022-07-06T09:50:15;17.50;99.90
49717;DHT22;35609;53.166;7.610;2022-07-06T09:52:53;17.60;99.90
49717;DHT22;35609;53.166;7.610;2022-07-06T09:55:21;17.70;99.90
49717;DHT22;35609;53.166;7.610;2022-07-06T09:57:54;17.50;99.90
49717;DHT22;35609;53.166;7.610;2022-07-06T10:00:20;17.80;99.90
49717;DHT22;35609;53.166;7.610;2022-07-06T10:02:47;18.20;99.90
49717;DHT22;35609;53.166;7.610;2022-07-06T10:05:16;18.40;99.90
49717;DHT22;35609;53.166;7.610;2022-07-06T10:07:45;18.20;99.90
49717;DHT22;35609;53.166;7.610;2022-07-06T10:10:12;17.80;99.90
49717;DHT22;35609;53.166;7.610;2022-07-06T10:12:40;17.60;99.90
49717;DHT22;35609;53.166;7.610;2022-07-06T10:15:07;17.60;99.90
49717;DHT22;35609;53.166;7.610;2022-07-06T10:17:34;17.60;99.90
49717;DHT22;35609;53.166;7.610;2022-07-06T10:20:00;17.40;99.90
49717;DHT22;35609;53.166;7.610;2022-07-06T10:22:26;17.30;99.90
49717;DHT22;35609;53.166;7.610;2022-07-06T10:24:52;17.50;99.90
49717;DHT22;35609;53.166;7.610;2022-07-06T10:27:18;17.90;99.90
49717;DHT22;35609;53.166;7.610;2022-07-06T10:29:44;18.10;99.90
49717;DHT22;35609;53.166;7.610;2022-07-06T10:32:10;18.30;99.90
49717;DHT22;35609;53.166;7.610;2022-07-06T10:34:36;18.70;99.90
49717;DHT22;35609;53.166;7.610;2022-07-06T10:37:02;18.10;99.90
49717;DHT22;35609;53.166;7.610;2022-07-06T10:39:38;18.30;99.90
49717;DHT22;35609;53.166;7.610;2022-07-06T10:45:08;18.50;99.90
49717;DHT22;35609;53.166;7.610;2022-07-06T10:47:35;18.90;99.90
49717;DHT22;35609;53.166;7.610;2022-07-06T10:50:02;19.40;99.90
49717;DHT22;35609;53.166;7.610;2022-07-06T10:52:51;19.90;99.90
49717;DHT22;35609;53.166;7.610;2022-07-06T10:55:36;19.50;99.90
49717;DHT22;35609;53.166;7.610;2022-07-06T10:58:03;19.00;99.90
49717;DHT22;35609;53.166;7.610;2022-07-06T11:00:49;19.10;99.90
49717;DHT22;35609;53.166;7.610;2022-07-06T11:06:07;20.00;99.90
49717;DHT22;35609;53.166;7.610;2022-07-06T11:11:20;20.40;99.90
49717;DHT22;35609;53.166;7.610;2022-07-06T11:13:58;20.70;99.90
49717;DHT22;35609;53.166;7.610;2022-07-06T11:16:26;20.70;99.30
49717;DHT22;35609;53.166;7.610;2022-07-06T11:21:35;19.40;99.90
49717;DHT22;35609;53.166;7.610;2022-07-06T11:24:02;19.40;99.90
49717;DHT22;35609;53.166;7.610;2022-07-06T11:26:30;20.00;99.90
49717;DHT22;35609;53.166;7.610;2022-07-06T11:28:58;20.10;99.90
49717;DHT22;35609;53.166;7.610;2022-07-06T11:31:24;19.80;99.10
49717;DHT22;35609;53.166;7.610;2022-07-06T11:33:50;19.80;99.10
49717;DHT22;35609;53.166;7.610;2022-07-06T11:38:43;20.00;98.90
49717;DHT22;35609;53.166;7.610;2022-07-06T11:41:09;20.00;97.40
49717;DHT22;35609;53.166;7.610;2022-07-06T11:43:37;19.80;97.50
49717;DHT22;35609;53.166;7.610;2022-07-06T11:46:03;20.40;98.90
49717;DHT22;35609;53.166;7.610;2022-07-06T11:48:29;20.30;95.70
49717;DHT22;35609;53.166;7.610;2022-07-06T11:50:59;20.30;96.30
49717;DHT22;35609;53.166;7.610;2022-07-06T11:53:25;20.50;96.70
49717;DHT22;35609;53.166;7.610;2022-07-06T11:55:53;20.90;95.80
49717;DHT22;35609;53.166;7.610;2022-07-06T11:58:22;20.70;97.20
49717;DHT22;35609;53.166;7.610;2022-07-06T12:01:07;20.80;97.60
49717;DHT22;35609;53.166;7.610;2022-07-06T12:03:34;21.00;96.80
49717;DHT22;35609;53.166;7.610;2022-07-06T12:06:12;20.70;96.70
49717;DHT22;35609;53.166;7.610;2022-07-06T12:09:04;21.40;97.60
49717;DHT22;35609;53.166;7.610;2022-07-06T12:11:36;22.20;96.20
49717;DHT22;35609;53.166;7.610;2022-07-06T12:14:15;21.70;95.70
49717;DHT22;35609;53.166;7.610;2022-07-06T12:16:41;21.70;95.80
49717;DHT22;35609;53.166;7.610;2022-07-06T12:19:08;22.00;96.20
49717;DHT22;35609;53.166;7.610;2022-07-06T12:21:34;21.50;96.10
49717;DHT22;35609;53.166;7.610;2022-07-06T12:24:00;21.00;97.10
49717;DHT22;35609;53.166;7.610;2022-07-06T12:26:27;20.40;97.40
49717;DHT22;35609;53.166;7.610;2022-07-06T12:29:06;20.60;98.40
49717;DHT22;35609;53.166;7.610;2022-07-06T12:31:37;20.90;99.10
49717;DHT22;35609;53.166;7.610;2022-07-06T12:34:04;21.40;99.90
49717;DHT22;35609;53.166;7.610;2022-07-06T12:36:31;21.90;97.20
49717;DHT22;35609;53.166;7.610;2022-07-06T12:39:11;21.40;96.60
49717;DHT22;35609;53.166;7.610;2022-07-06T12:41:37;20.60;97.10
49717;DHT22;35609;53.166;7.610;2022-07-06T12:44:09;20.20;97.90
49717;DHT22;35609;53.166;7.610;2022-07-06T12:46:39;20.40;98.80
49717;DHT22;35609;53.166;7.610;2022-07-06T12:49:21;21.10;98.10
49717;DHT22;35609;53.166;7.610;2022-07-06T12:51:57;21.20;97.70
49717;DHT22;35609;53.166;7.610;2022-07-06T12:54:29;20.80;97.70
49717;DHT22;35609;53.166;7.610;2022-07-06T12:57:06;20.50;97.50
49717;DHT22;35609;53.166;7.610;2022-07-06T12:59:36;21.00;97.80
49717;DHT22;35609;53.166;7.610;2022-07-06T13:02:06;21.40;96.90
49717;DHT22;35609;53.166;7.610;2022-07-06T13:04:34;22.00;96.80
49717;DHT22;35609;53.166;7.610;2022-07-06T13:07:01;22.40;96.80
49717;DHT22;35609;53.166;7.610;2022-07-06T13:09:27;22.20;96.30
49717;DHT22;35609;53.166;7.610;2022-07-06T13:11:56;21.70;97.10
49717;DHT22;35609;53.166;7.610;2022-07-06T13:14:22;21.30;97.10
49717;DHT22;35609;53.166;7.610;2022-07-06T13:16:48;20.60;96.70
49717;DHT22;35609;53.166;7.610;2022-07-06T13:19:14;20.50;97.60
49717;DHT22;35609;53.166;7.610;2022-07-06T13:21:40;20.50;97.50
49717;DHT22;35609;53.166;7.610;2022-07-06T13:24:06;21.30;97.90
49717;DHT22;35609;53.166;7.610;2022-07-06T13:26:32;20.90;97.20
49717;DHT22;35609;53.166;7.610;2022-07-06T13:29:03;20.70;97.80
49717;DHT22;35609;53.166;7.610;2022-07-06T13:31:30;20.40;97.20
49717;DHT22;35609;53.166;7.610;2022-07-06T13:33:56;20.30;97.60
49717;DHT22;35609;53.166;7.610;2022-07-06T13:36:27;20.50;98.50
49717;DHT22;35609;53.166;7.610;2022-07-06T13:39:02;20.70;99.00
49717;DHT22;35609;53.166;7.610;2022-07-06T13:41:31;21.30;99.10
49717;DHT22;35609;53.166;7.610;2022-07-06T13:44:06;21.50;98.00
49717;DHT22;35609;53.166;7.610;2022-07-06T13:46:40;21.50;97.60
49717;DHT22;35609;53.166;7.610;2022-07-06T13:49:14;21.30;96.20
49717;DHT22;35609;53.166;7.610;2022-07-06T13:51:49;21.10;97.40
49717;DHT22;35609;53.166;7.610;2022-07-06T13:54:40;21.00;97.10
49717;DHT22;35609;53.166;7.610;2022-07-06T13:57:12;21.10;98.00
49717;DHT22;35609;53.166;7.610;2022-07-06T13:59:41;21.40;97.50
49717;DHT22;35609;53.166;7.610;2022-07-06T14:02:08;21.40;97.10
49717;DHT22;35609;53.166;7.610;2022-07-06T14:04:34;21.20;96.80
49717;DHT22;35609;53.166;7.610;2022-07-06T14:07:09;21.10;96.00
49717;DHT22;35609;53.166;7.610;2022-07-06T14:09:35;20.90;96.90
49717;DHT22;35609;53.166;7.610;2022-07-06T14:12:01;21.00;96.40
49717;DHT22;35609;53.166;7.610;2022-07-06T14:14:33;21.40;97.20
49717;DHT22;35609;53.166;7.610;2022-07-06T14:17:21;21.80;96.70
49717;DHT22;35609;53.166;7.610;2022-07-06T14:19:50;21.60;96.30
49717;DHT22;35609;53.166;7.610;2022-07-06T14:22:19;21.30;96.80
49717;DHT22;35609;53.166;7.610;2022-07-06T14:24:44;21.30;97.50
49717;DHT22;35609;53.166;7.610;2022-07-06T14:27:10;20.80;97.00
49717;DHT22;35609;53.166;7.610;2022-07-06T14:29:36;20.50;98.20
49717;DHT22;35609;53.166;7.610;2022-07-06T14:32:02;20.40;98.30
49717;DHT22;35609;53.166;7.610;2022-07-06T14:34:27;20.10;98.10
49717;DHT22;35609;53.166;7.610;2022-07-06T14:36:54;19.90;98.20
49717;DHT22;35609;53.166;7.610;2022-07-06T14:39:20;19.80;99.50
49717;DHT22;35609;53.166;7.610;2022-07-06T14:41:45;19.80;99.50
49717;DHT22;35609;53.166;7.610;2022-07-06T14:44:11;19.70;98.70
49717;DHT22;35609;53.166;7.610;2022-07-06T14:46:37;19.40;99.40
49717;DHT22;35609;53.166;7.610;2022-07-06T14:49:02;19.30;99.80
49717;DHT22;35609;53.166;7.610;2022-07-06T14:51:28;19.20;99.90
49717;DHT22;35609;53.166;7.610;2022-07-06T14:53:53;19.10;99.90
49717;DHT22;35609;53.166;7.610;2022-07-06T14:56:19;19.10;99.60
49717;DHT22;35609;53.166;7.610;2022-07-06T14:58:45;19.00;99.80
49717;DHT22;35609;53.166;7.610;2022-07-06T15:01:11;18.90;99.90
49717;DHT22;35609;53.166;7.610;2022-07-06T15:03:36;18.80;99.90
49717;DHT22;35609;53.166;7.610;2022-07-06T15:06:02;18.70;99.90
49717;DHT22;35609;53.166;7.610;2022-07-06T15:08:29;18.70;99.90
49717;DHT22;35609;53.166;7.610;2022-07-06T15:10:55;18.60;99.70
49717;DHT22;35609;53.166;7.610;2022-07-06T15:13:20;18.50;99.90
49717;DHT22;35609;53.166;7.610;2022-07-06T15:15:46;18.50;99.90
49717;DHT22;35609;53.166;7.610;2022-07-06T15:18:12;18.40;99.90
49717;DHT22;35609;53.166;7.610;2022-07-06T15:20:38;18.30;99.90
49717;DHT22;35609;53.166;7.610;2022-07-06T15:23:04;18.20;99.90
49717;DHT22;35609;53.166;7.610;2022-07-06T15:25:29;18.30;99.90
49717;DHT22;35609;53.166;7.610;2022-07-06T15:27:55;18.20;99.90
49717;DHT22;35609;53.166;7.610;2022-07-06T15:30:21;18.10;99.90
49717;DHT22;35609;53.166;7.610;2022-07-06T15:32:48;18.10;99.90
49717;DHT22;35609;53.166;7.610;2022-07-06T15:35:14;18.00;99.90
49717;DHT22;35609;53.166;7.610;2022-07-06T15:37:41;18.00;99.90
49717;DHT22;35609;53.166;7.610;2022-07-06T15:40:07;18.00;99.90
49717;DHT22;35609;53.166;7.610;2022-07-06T15:42:38;17.90;99.90
49717;DHT22;35609;53.166;7.610;2022-07-06T15:45:06;17.80;99.90
49717;DHT22;35609;53.166;7.610;2022-07-06T15:47:32;17.70;99.90
49717;DHT22;35609;53.166;7.610;2022-07-06T15:49:57;17.60;99.90
49717;DHT22;35609;53.166;7.610;2022-07-06T15:52:23;17.60;99.90